Time;durP1;ratioP1;P1;durP2;ratioP2;P2;SDS_P1;SDS_P2;PMS_P1;PMS_P2;Temp;Humidity;BMP_temperature;BMP_pressure;BME280_temperature;BME280_humidity;BME280_pressure;Samples;Min_cycle;Max_cycle;Signal;HPM_P1;HPM_P2
2024/03/06 00:00:04;;;;;;;7.30;5.15;;;7.10;60.80;;;;;;4978626;28;20613;-80
2024/03/06 00:02:49;;;;;;;9.05;5.47;;;7.00;60.60;;;;;;4980699;28;20665;-79
2024/03/06 00:05:34;;;;;;;8.75;5.82;;;7.00;60.60;;;;;;4979338;28;20441;-79
2024/03/06 00:08:18;;;;;;;8.32;5.50;;;7.00;60.60;;;;;;4976082;28;20045;-80
2024/03/06 00:11:03;;;;;;;9.30;4.95;;;7.00;60.70;;;;;;4982087;28;20177;-80
2024/03/06 00:13:48;;;;;;;7.10;4.88;;;7.00;60.70;;;;;;4980077;28;20088;-79
2024/03/06 00:16:33;;;;;;;9.68;4.75;;;7.00;60.70;;;;;;4973163;28;20521;-80
2024/03/06 00:19:19;;;;;;;7.68;4.70;;;6.90;60.50;;;;;;4980723;28;20541;-79
2024/03/06 00:22:04;;;;;;;10.43;5.28;;;6.90;60.50;;;;;;4966691;28;20053;-80
2024/03/06 00:24:49;;;;;;;9.30;5.50;;;6.90;60.50;;;;;;4982174;28;20049;-79
2024/03/06 00:27:33;;;;;;;9.07;6.15;;;6.80;60.40;;;;;;4979071;28;20076;-80
2024/03/06 00:30:18;;;;;;;8.63;5.57;;;6.80;60.40;;;;;;4964016;28;20440;-79
2024/03/06 00:33:03;;;;;;;10.70;4.55;;;6.80;60.50;;;;;;4976762;28;20300;-79
2024/03/06 00:35:48;;;;;;;10.65;5.43;;;6.80;60.50;;;;;;4988950;28;20104;-81
2024/03/06 00:38:33;;;;;;;8.85;4.72;;;6.70;60.40;;;;;;4974421;28;20050;-81
2024/03/06 00:41:17;;;;;;;8.15;4.70;;;6.70;60.40;;;;;;4980703;28;20061;-80
2024/03/06 00:44:04;;;;;;;6.70;5.20;;;6.70;60.50;;;;;;4979452;28;20028;-80
2024/03/06 00:46:48;;;;;;;8.95;5.57;;;6.70;60.50;;;;;;4969479;28;20070;-80
2024/03/06 00:49:33;;;;;;;9.63;5.18;;;6.60;60.30;;;;;;4967646;28;20069;-80
2024/03/06 00:52:17;;;;;;;9.02;4.78;;;6.60;60.30;;;;;;4969285;28;20041;-79
2024/03/06 00:55:01;;;;;;;13.02;5.60;;;6.60;60.40;;;;;;4981413;28;20119;-78
2024/03/06 00:57:46;;;;;;;6.80;4.82;;;6.50;60.20;;;;;;4977893;28;20101;-78
2024/03/06 01:00:30;;;;;;;9.10;5.47;;;6.50;60.20;;;;;;4979765;28;20062;-78
2024/03/06 01:03:15;;;;;;;9.68;6.15;;;6.50;60.20;;;;;;4980603;28;20296;-78
2024/03/06 01:05:59;;;;;;;8.93;6.03;;;6.50;60.30;;;;;;4981197;28;20135;-78
2024/03/06 01:08:44;;;;;;;7.47;5.03;;;6.40;60.10;;;;;;4980348;28;20596;-78
2024/03/06 01:11:29;;;;;;;12.00;5.00;;;6.40;60.10;;;;;;4975730;28;20036;-78
2024/03/06 01:14:14;;;;;;;11.07;5.63;;;6.40;60.20;;;;;;4976753;28;20515;-79
2024/03/06 01:16:58;;;;;;;7.63;5.22;;;6.30;60.00;;;;;;4965213;28;20049;-87
2024/03/06 01:19:43;;;;;;;10.60;5.55;;;6.30;60.10;;;;;;4971419;28;20100;-85
2024/03/06 01:22:27;;;;;;;7.07;5.50;;;6.30;60.10;;;;;;4981428;28;20120;-91
2024/03/06 01:25:11;;;;;;;8.60;5.05;;;6.20;59.90;;;;;;4975226;28;20041;-86
2024/03/06 01:27:56;;;;;;;9.23;5.05;;;6.20;60.00;;;;;;4992121;28;20748;-89
2024/03/06 01:30:40;;;;;;;8.02;4.60;;;6.20;60.00;;;;;;4985577;28;20634;-84
2024/03/06 01:33:24;;;;;;;7.60;5.07;;;6.20;60.00;;;;;;4970662;28;20640;-83
2024/03/06 01:36:10;;;;;;;8.60;4.93;;;6.10;59.90;;;;;;4977328;28;20138;-82
2024/03/06 01:38:55;;;;;;;7.32;4.18;;;6.10;59.90;;;;;;4967673;28;20034;-92
2024/03/06 01:41:46;;;;;;;9.73;4.78;;;6.10;59.90;;;;;;4973863;28;20124;-90
2024/03/06 01:44:31;;;;;;;8.93;4.72;;;6.10;59.90;;;;;;4978508;28;20104;-80
2024/03/06 01:47:16;;;;;;;6.20;4.20;;;6.10;59.90;;;;;;4976961;28;20704;-81
2024/03/06 01:50:01;;;;;;;5.80;4.53;;;6.10;60.00;;;;;;4980887;28;20125;-81
2024/03/06 01:52:47;;;;;;;11.77;4.60;;;6.10;60.00;;;;;;4972161;28;20049;-79
2024/03/06 01:55:31;;;;;;;6.57;4.55;;;6.00;59.80;;;;;;4979185;28;20145;-79
2024/03/06 01:58:17;;;;;;;8.85;4.78;;;6.10;60.00;;;;;;4983168;28;20033;-79
2024/03/06 02:01:02;;;;;;;8.20;4.05;;;6.00;59.90;;;;;;4974883;28;20049;-80
2024/03/06 02:03:48;;;;;;;7.07;4.07;;;6.00;59.90;;;;;;4977874;28;20029;-79
2024/03/06 02:06:32;;;;;;;8.60;4.10;;;6.00;59.90;;;;;;4977672;28;20041;-79
2024/03/06 02:09:16;;;;;;;9.63;4.13;;;6.00;60.50;;;;;;4979703;28;20501;-78
2024/03/06 02:12:01;;;;;;;7.95;4.22;;;6.00;59.90;;;;;;4972413;28;20073;-78
2024/03/06 02:14:46;;;;;;;10.35;4.80;;;6.00;59.90;;;;;;4981508;28;20580;-78
2024/03/06 02:17:30;;;;;;;6.40;3.83;;;6.00;59.90;;;;;;4981035;28;20076;-78
2024/03/06 02:20:15;;;;;;;8.27;4.10;;;6.00;59.90;;;;;;4979568;28;20057;-78
2024/03/06 02:23:01;;;;;;;7.45;4.30;;;5.90;59.80;;;;;;4979474;28;20064;-78
2024/03/06 02:25:47;;;;;;;6.50;3.78;;;5.90;59.80;;;;;;4980833;28;20425;-80
2024/03/06 02:28:31;;;;;;;7.57;3.63;;;6.00;60.00;;;;;;4977098;28;20145;-79
2024/03/06 02:31:20;;;;;;;7.88;4.47;;;5.90;59.80;;;;;;4974019;28;20604;-80
2024/03/06 02:34:06;;;;;;;7.63;4.28;;;5.90;59.80;;;;;;4981810;28;20134;-80
2024/03/06 02:36:53;;;;;;;7.57;4.57;;;5.90;59.80;;;;;;4974764;28;20136;-86
2024/03/06 02:39:40;;;;;;;10.80;4.50;;;5.90;59.80;;;;;;4980626;28;20181;-82
2024/03/06 02:42:26;;;;;;;9.75;4.28;;;5.90;60.30;;;;;;4976827;28;20050;-82
2024/03/06 02:45:10;;;;;;;9.57;4.75;;;5.90;59.80;;;;;;4979571;28;20398;-79
2024/03/06 02:47:54;;;;;;;9.73;4.53;;;5.90;59.80;;;;;;4975559;28;20390;-79
2024/03/06 02:50:39;;;;;;;8.77;3.75;;;5.90;59.80;;;;;;4985361;28;20049;-80
2024/03/06 02:53:23;;;;;;;10.75;5.22;;;5.90;59.80;;;;;;4977955;28;20487;-81
2024/03/06 02:56:07;;;;;;;7.15;4.18;;;5.90;59.80;;;;;;4979759;28;20133;-81
2024/03/06 02:58:52;;;;;;;9.10;4.07;;;5.90;59.80;;;;;;4985026;28;20041;-81
2024/03/06 03:01:38;;;;;;;7.70;3.50;;;5.90;59.80;;;;;;4980696;28;20048;-80
2024/03/06 03:04:23;;;;;;;9.25;4.45;;;5.90;60.40;;;;;;4986423;28;20042;-80
2024/03/06 03:07:07;;;;;;;5.80;3.83;;;5.90;59.90;;;;;;4980705;28;20065;-79
2024/03/06 03:09:52;;;;;;;6.90;4.10;;;5.90;59.90;;;;;;4984820;28;20205;-81
2024/03/06 03:12:39;;;;;;;11.82;3.85;;;5.80;59.70;;;;;;4987463;28;20053;-79
2024/03/06 03:15:23;;;;;;;8.98;4.22;;;5.80;59.70;;;;;;4985448;28;20053;-80
2024/03/06 03:18:08;;;;;;;9.15;4.35;;;5.80;59.70;;;;;;4985333;28;20049;-79
2024/03/06 03:20:53;;;;;;;8.77;3.80;;;5.80;59.70;;;;;;4984769;28;20515;-79
2024/03/06 03:23:37;;;;;;;9.65;4.50;;;5.80;59.70;;;;;;4982929;28;20038;-79
2024/03/06 03:26:22;;;;;;;12.63;4.03;;;5.80;59.70;;;;;;4986547;28;20557;-80
2024/03/06 03:29:06;;;;;;;9.02;3.90;;;5.80;59.70;;;;;;4984270;28;20409;-80
2024/03/06 03:31:51;;;;;;;9.93;4.55;;;5.80;59.70;;;;;;4985187;28;20041;-81
2024/03/06 03:34:35;;;;;;;7.85;4.03;;;5.80;59.70;;;;;;4981187;28;20058;-80
2024/03/06 03:37:19;;;;;;;6.28;3.58;;;5.80;59.70;;;;;;4987815;28;20124;-79
2024/03/06 03:40:06;;;;;;;7.85;4.28;;;5.80;59.70;;;;;;4986368;28;20441;-79
2024/03/06 03:42:51;;;;;;;11.07;4.78;;;5.80;59.70;;;;;;4984725;28;20564;-80
2024/03/06 03:45:35;;;;;;;10.77;4.15;;;5.80;59.70;;;;;;4978526;28;20174;-79
2024/03/06 03:48:20;;;;;;;7.65;3.30;;;5.80;59.80;;;;;;4981729;28;20088;-80
2024/03/06 03:51:05;;;;;;;8.65;4.35;;;5.70;59.60;;;;;;4982798;28;20066;-80
2024/03/06 03:53:52;;;;;;;8.25;3.95;;;5.80;59.80;;;;;;4981070;28;20429;-81
2024/03/06 03:56:37;;;;;;;8.40;3.97;;;5.70;59.60;;;;;;4979388;28;20430;-79
2024/03/06 03:59:21;;;;;;;10.35;4.95;;;5.70;59.60;;;;;;4986802;28;20101;-79
2024/03/06 04:02:06;;;;;;;7.30;3.53;;;5.70;59.60;;;;;;4981323;28;20088;-79
2024/03/06 04:04:51;;;;;;;10.45;3.78;;;5.70;59.60;;;;;;4976472;28;20267;-80
2024/03/06 04:07:36;;;;;;;10.27;4.22;;;5.70;59.60;;;;;;4986259;28;20471;-79
2024/03/06 04:10:20;;;;;;;9.15;3.60;;;5.70;59.60;;;;;;4982733;28;20044;-80
2024/03/06 04:13:06;;;;;;;6.53;3.50;;;5.70;59.60;;;;;;4971694;28;20166;-82
2024/03/06 04:15:50;;;;;;;8.25;3.55;;;5.80;59.80;;;;;;4983566;28;20052;-80
2024/03/06 04:18:34;;;;;;;8.25;3.88;;;5.80;59.80;;;;;;4987219;28;20508;-80
2024/03/06 04:21:18;;;;;;;7.28;3.50;;;5.80;59.80;;;;;;4982443;28;20137;-81
2024/03/06 04:24:03;;;;;;;7.30;3.25;;;5.80;59.80;;;;;;4965862;28;20045;-79
2024/03/06 04:26:48;;;;;;;6.60;3.60;;;5.80;59.80;;;;;;4987715;28;20096;-81
2024/03/06 04:29:32;;;;;;;6.55;3.65;;;5.80;59.80;;;;;;4982539;28;20049;-80
2024/03/06 04:32:16;;;;;;;9.38;3.90;;;5.80;59.80;;;;;;4989651;28;20061;-78
2024/03/06 04:35:01;;;;;;;8.40;3.70;;;5.80;59.80;;;;;;4986490;28;20575;-80
2024/03/06 04:37:45;;;;;;;9.68;4.07;;;5.80;59.80;;;;;;4997001;28;20045;-80
2024/03/06 04:40:30;;;;;;;8.75;3.70;;;5.80;59.80;;;;;;4989567;28;20448;-79
2024/03/06 04:43:15;;;;;;;8.35;3.65;;;5.70;59.60;;;;;;4990001;28;20045;-80
2024/03/06 04:45:59;;;;;;;9.02;3.63;;;5.70;59.60;;;;;;4983620;28;20050;-80
2024/03/06 04:48:46;;;;;;;6.43;3.10;;;5.70;59.60;;;;;;4985001;28;20568;-79
2024/03/06 04:51:31;;;;;;;6.35;3.63;;;5.80;59.80;;;;;;4986557;28;20152;-81
2024/03/06 04:54:15;;;;;;;8.45;3.63;;;5.70;59.70;;;;;;4987920;28;20073;-79
2024/03/06 04:56:59;;;;;;;8.52;3.50;;;5.70;59.70;;;;;;4981046;28;20042;-80
2024/03/06 04:59:44;;;;;;;6.57;3.88;;;5.70;59.70;;;;;;4985815;28;20204;-79
2024/03/06 05:02:28;;;;;;;3.72;2.97;;;5.70;59.70;;;;;;4987244;28;20041;-79
2024/03/06 05:05:14;;;;;;;6.53;3.25;;;5.70;59.70;;;;;;4977291;28;20069;-79
2024/03/06 05:07:58;;;;;;;6.10;3.35;;;5.60;59.50;;;;;;4978695;28;20065;-80
2024/03/06 05:10:43;;;;;;;9.65;3.80;;;5.60;59.60;;;;;;4988018;28;20125;-79
2024/03/06 05:13:27;;;;;;;6.38;3.17;;;5.60;59.60;;;;;;4988718;28;20125;-79
2024/03/06 05:16:11;;;;;;;9.02;4.43;;;5.60;59.60;;;;;;4986466;28;20048;-79
2024/03/06 05:18:56;;;;;;;6.72;3.60;;;5.60;59.60;;;;;;4987723;28;20560;-79
2024/03/06 05:21:40;;;;;;;9.88;3.40;;;5.60;59.60;;;;;;4977167;28;20513;-79
2024/03/06 05:24:24;;;;;;;7.60;3.58;;;5.50;59.40;;;;;;4977249;28;20100;-79
2024/03/06 05:27:10;;;;;;;10.27;3.90;;;5.50;59.40;;;;;;4988858;28;20548;-79
2024/03/06 05:29:54;;;;;;;7.50;3.50;;;5.50;59.40;;;;;;4986533;28;20038;-80
2024/03/06 05:32:39;;;;;;;6.82;3.40;;;5.50;59.40;;;;;;4982795;28;20146;-78
2024/03/06 05:35:23;;;;;;;5.63;3.30;;;5.50;59.50;;;;;;4983040;28;20180;-79
2024/03/06 05:38:08;;;;;;;5.75;3.33;;;5.40;59.30;;;;;;4997906;28;20053;-78
2024/03/06 05:40:53;;;;;;;3.85;3.20;;;5.40;59.30;;;;;;4988097;28;20089;-79
2024/03/06 05:43:37;;;;;;;5.72;3.45;;;5.40;59.30;;;;;;4989267;28;20088;-78
2024/03/06 05:46:22;;;;;;;8.65;3.17;;;5.40;59.40;;;;;;4972019;28;20050;-79
2024/03/06 05:49:07;;;;;;;6.57;3.40;;;5.30;59.20;;;;;;4994652;28;20041;-79
2024/03/06 05:51:52;;;;;;;5.22;3.17;;;5.30;59.20;;;;;;4979800;28;20229;-78
2024/03/06 05:54:37;;;;;;;10.25;3.50;;;5.30;59.30;;;;;;4982994;28;20473;-78
2024/03/06 05:57:21;;;;;;;5.75;3.35;;;5.30;59.30;;;;;;4979086;28;20049;-78
2024/03/06 06:00:11;;;;;;;3.92;3.15;;;5.30;59.40;;;;;;4980579;28;20100;-78
2024/03/06 06:02:56;;;;;;;8.93;3.75;;;5.20;59.20;;;;;;4969645;28;20073;-79
2024/03/06 06:05:40;;;;;;;5.95;3.25;;;5.20;59.30;;;;;;4978030;28;20512;-79
2024/03/06 06:08:25;;;;;;;6.95;3.35;;;5.20;59.30;;;;;;4976010;28;20041;-79
2024/03/06 06:11:10;;;;;;;8.88;3.28;;;5.10;59.10;;;;;;4964018;28;20038;-79
2024/03/06 06:13:55;;;;;;;8.27;3.88;;;5.10;59.10;;;;;;4967075;28;20505;-79
2024/03/06 06:16:42;;;;;;;6.45;3.40;;;5.10;59.20;;;;;;4974785;28;20587;-77
2024/03/06 06:19:27;;;;;;;8.85;3.58;;;5.10;59.20;;;;;;4970556;28;20037;-77
2024/03/06 06:22:12;;;;;;;7.68;3.80;;;5.10;59.20;;;;;;4965840;28;20049;-77
2024/03/06 06:24:57;;;;;;;7.90;3.38;;;5.00;59.00;;;;;;4963141;28;20093;-80
2024/03/06 06:27:42;;;;;;;9.48;3.78;;;5.00;59.00;;;;;;4970048;28;20085;-77
2024/03/06 06:30:26;;;;;;;8.10;4.10;;;5.00;59.00;;;;;;4968926;28;20049;-79
2024/03/06 06:33:10;;;;;;;9.18;4.03;;;5.00;59.00;;;;;;4963147;28;20053;-78
2024/03/06 06:35:54;;;;;;;8.80;4.07;;;5.00;59.10;;;;;;4981430;28;20053;-78
2024/03/06 06:38:39;;;;;;;9.40;5.00;;;4.90;58.90;;;;;;4977179;28;20309;-78
2024/03/06 06:41:23;;;;;;;10.90;4.70;;;4.90;58.90;;;;;;4974566;28;20137;-78
2024/03/06 06:44:08;;;;;;;6.10;2.78;;;4.90;59.00;;;;;;4969468;28;20048;-75
2024/03/06 06:46:52;;;;;;;72.07;13.35;;;4.90;59.10;;;;;;4974436;28;20061;-76
2024/03/06 06:49:36;;;;;;;68.20;16.15;;;4.90;59.50;;;;;;4974743;28;20096;-77
2024/03/06 06:52:20;;;;;;;36.47;10.93;;;5.00;59.80;;;;;;4964908;28;20049;-77
2024/03/06 06:55:06;;;;;;;36.50;10.38;;;5.10;59.90;;;;;;4969929;28;20161;-77
2024/03/06 06:57:51;;;;;;;25.75;7.68;;;5.20;60.10;;;;;;4972443;28;20422;-77
2024/03/06 07:00:37;;;;;;;34.35;8.85;;;5.30;60.40;;;;;;4989603;28;20351;-76
2024/03/06 07:03:23;;;;;;;27.92;8.13;;;5.30;60.50;;;;;;4967205;28;20443;-76
2024/03/06 07:06:07;;;;;;;23.17;7.85;;;5.40;60.80;;;;;;4973415;28;20097;-75
2024/03/06 07:08:52;;;;;;;30.30;7.57;;;5.50;61.10;;;;;;4973415;28;20101;-75
2024/03/06 07:11:36;;;;;;;20.15;6.63;;;5.50;61.20;;;;;;4968999;28;20456;-75
2024/03/06 07:14:20;;;;;;;20.38;8.57;;;5.60;61.50;;;;;;4973336;28;20576;-75
2024/03/06 07:17:05;;;;;;;20.23;6.72;;;5.70;61.80;;;;;;4956514;28;20053;-75
2024/03/06 07:19:50;;;;;;;16.35;6.38;;;5.70;61.90;;;;;;4975478;28;20036;-77
2024/03/06 07:22:35;;;;;;;13.18;6.32;;;5.80;62.20;;;;;;4948878;28;20050;-78
2024/03/06 07:25:20;;;;;;;14.90;7.03;;;5.90;62.40;;;;;;4971004;28;20177;-78
2024/03/06 07:28:04;;;;;;;13.70;7.25;;;5.90;62.50;;;;;;4974101;28;20179;-77
2024/03/06 07:30:49;;;;;;;15.00;6.32;;;6.00;62.80;;;;;;4973813;28;20057;-78
2024/03/06 07:33:34;;;;;;;13.75;6.57;;;6.00;62.90;;;;;;4973032;28;20532;-78
2024/03/06 07:36:19;;;;;;;13.50;6.10;;;6.10;63.20;;;;;;4962394;28;20434;-78
2024/03/06 07:39:04;;;;;;;11.82;5.95;;;6.10;63.30;;;;;;4972721;28;20052;-78
2024/03/06 07:41:50;;;;;;;17.35;5.60;;;6.20;63.50;;;;;;4985184;28;20041;-78
2024/03/06 07:44:36;;;;;;;13.40;5.75;;;6.30;63.80;;;;;;4972067;28;20036;-77
2024/03/06 07:47:20;;;;;;;13.35;5.85;;;6.30;63.80;;;;;;4970111;28;20053;-78
2024/03/06 07:50:10;;;;;;;12.50;6.68;;;6.40;64.10;;;;;;4974624;28;20056;-77
2024/03/06 07:52:55;;;;;;;8.55;5.05;;;6.40;64.10;;;;;;4961080;28;20049;-77
2024/03/06 07:55:40;;;;;;;10.95;5.80;;;6.40;64.10;;;;;;4977589;28;20101;-76
2024/03/06 07:58:25;;;;;;;8.52;5.55;;;6.40;64.70;;;;;;4980186;28;20074;-75
2024/03/06 08:01:10;;;;;;;8.68;5.82;;;6.40;64.20;;;;;;4980780;28;20037;-77
2024/03/06 08:03:55;;;;;;;10.15;6.43;;;6.40;64.20;;;;;;4977267;28;20048;-76
2024/03/06 08:06:40;;;;;;;10.35;5.60;;;6.40;64.20;;;;;;4975327;28;20379;-76
2024/03/06 08:09:28;;;;;;;9.05;5.97;;;6.40;64.20;;;;;;4972847;28;20033;-77
2024/03/06 08:12:12;;;;;;;10.65;7.25;;;6.40;64.20;;;;;;4973607;28;20046;-76
2024/03/06 08:14:57;;;;;;;9.10;5.15;;;6.40;64.20;;;;;;4976210;28;20652;-77
2024/03/06 08:17:43;;;;;;;14.20;5.68;;;6.40;64.20;;;;;;4979925;28;20085;-76
2024/03/06 08:20:28;;;;;;;10.07;6.00;;;6.40;64.20;;;;;;4975304;28;20068;-77
2024/03/06 08:23:12;;;;;;;8.07;5.90;;;6.40;64.20;;;;;;4977920;28;20307;-77
2024/03/06 08:25:57;;;;;;;9.73;5.90;;;6.40;64.20;;;;;;4972430;28;20037;-78
2024/03/06 08:28:41;;;;;;;10.77;5.40;;;6.40;64.20;;;;;;4961687;28;20034;-77
2024/03/06 08:31:26;;;;;;;8.95;6.22;;;6.40;64.10;;;;;;4981432;28;20509;-76
2024/03/06 08:34:11;;;;;;;7.70;5.88;;;6.40;64.10;;;;;;4975013;28;20062;-77
2024/03/06 08:36:55;;;;;;;8.32;5.43;;;6.50;64.30;;;;;;4982230;28;20417;-77
2024/03/06 08:39:39;;;;;;;6.47;5.50;;;6.50;64.30;;;;;;4979316;28;20468;-77
2024/03/06 08:42:23;;;;;;;8.27;5.80;;;6.50;64.20;;;;;;4971621;28;20116;-77
2024/03/06 08:45:08;;;;;;;10.27;6.72;;;6.50;64.20;;;;;;4986584;28;20075;-77
2024/03/06 08:47:53;;;;;;;11.60;6.93;;;6.50;64.20;;;;;;4981158;28;20065;-79
2024/03/06 08:50:38;;;;;;;9.52;5.22;;;6.50;64.20;;;;;;4968766;28;20050;-79
2024/03/06 08:53:23;;;;;;;9.82;5.72;;;6.60;64.30;;;;;;4971975;28;20037;-79
2024/03/06 08:56:08;;;;;;;9.05;5.75;;;6.60;64.30;;;;;;4975226;28;20057;-79
2024/03/06 08:58:52;;;;;;;10.40;6.53;;;6.70;64.40;;;;;;4974828;28;20077;-80
2024/03/06 09:01:38;;;;;;;8.45;5.15;;;6.70;64.40;;;;;;4979104;28;20093;-77
2024/03/06 09:04:22;;;;;;;6.57;4.78;;;6.70;64.30;;;;;;4976789;28;20041;-79
2024/03/06 09:07:07;;;;;;;11.30;5.95;;;6.80;64.50;;;;;;4977816;28;20040;-77
2024/03/06 09:09:51;;;;;;;8.80;5.45;;;6.80;64.40;;;;;;4976765;28;20049;-77
2024/03/06 09:12:37;;;;;;;8.55;6.53;;;6.80;64.40;;;;;;4967642;28;20577;-77
2024/03/06 09:15:21;;;;;;;12.55;5.95;;;6.80;64.30;;;;;;4976724;28;20140;-79
2024/03/06 09:18:06;;;;;;;9.82;5.82;;;6.90;64.50;;;;;;4970635;28;20141;-79
2024/03/06 09:20:51;;;;;;;11.27;6.05;;;6.90;64.40;;;;;;4988752;28;20049;-79
2024/03/06 09:23:37;;;;;;;7.93;4.85;;;7.00;64.50;;;;;;4974696;28;20481;-79
2024/03/06 09:26:21;;;;;;;9.40;6.32;;;7.00;64.50;;;;;;4973468;28;20084;-79
2024/03/06 09:29:06;;;;;;;11.98;5.88;;;7.10;64.60;;;;;;4979095;28;20411;-79
2024/03/06 09:31:51;;;;;;;8.50;5.18;;;7.10;64.50;;;;;;4981711;28;20034;-79
2024/03/06 09:34:36;;;;;;;8.27;5.05;;;7.10;64.50;;;;;;4979303;28;20140;-79
2024/03/06 09:37:21;;;;;;;9.35;5.60;;;7.20;64.60;;;;;;4981174;28;20182;-79
2024/03/06 09:40:07;;;;;;;11.18;6.03;;;7.20;64.60;;;;;;4981922;28;20112;-79
2024/03/06 09:42:51;;;;;;;8.93;5.45;;;7.30;64.70;;;;;;4976290;28;20037;-79
2024/03/06 09:45:38;;;;;;;10.43;5.35;;;7.30;64.60;;;;;;4973253;28;20122;-77
2024/03/06 09:48:22;;;;;;;9.38;5.50;;;7.40;64.70;;;;;;4976902;28;20053;-77
2024/03/06 09:51:07;;;;;;;9.55;5.78;;;7.40;64.60;;;;;;4984019;28;20092;-77
2024/03/06 09:53:52;;;;;;;10.93;5.43;;;7.50;64.70;;;;;;4989338;28;20060;-78
2024/03/06 09:56:38;;;;;;;9.45;5.35;;;7.50;64.70;;;;;;4979076;28;20485;-78
2024/03/06 09:59:22;;;;;;;8.65;5.30;;;7.60;64.80;;;;;;4980426;28;20520;-78
2024/03/06 10:02:18;;;;;;;10.10;5.10;;;7.60;64.70;;;;;;4978667;28;20634;-78
2024/03/06 10:05:05;;;;;;;13.43;6.25;;;7.70;64.80;;;;;;4971787;28;20500;-77
2024/03/06 10:07:51;;;;;;;9.98;5.68;;;7.80;64.80;;;;;;4974796;28;20106;-78
2024/03/06 10:10:36;;;;;;;9.63;5.75;;;7.80;64.80;;;;;;4973743;28;20596;-78
2024/03/06 10:13:25;;;;;;;8.85;5.55;;;7.90;64.90;;;;;;4965974;28;20054;-77
2024/03/06 10:16:11;;;;;;;11.60;6.20;;;7.90;64.80;;;;;;4976744;28;20478;-78
2024/03/06 10:18:56;;;;;;;9.57;5.00;;;8.00;64.90;;;;;;4977405;28;20044;-79
2024/03/06 10:21:40;;;;;;;10.30;6.47;;;8.00;64.80;;;;;;4975454;28;20045;-79
2024/03/06 10:24:29;;;;;;;9.43;5.03;;;8.10;64.90;;;;;;4978717;28;20555;-79
2024/03/06 10:27:17;;;;;;;9.20;5.50;;;8.20;65.00;;;;;;4977478;28;20072;-79
2024/03/06 10:30:11;;;;;;;8.65;4.68;;;8.20;64.90;;;;;;4972500;28;20682;-79
2024/03/06 10:32:55;;;;;;;;;;;8.30;65.00;;;;;;4972497;28;20053;-78
2024/03/06 10:35:44;;;;;;;10.45;5.50;;;8.30;64.90;;;;;;4990550;28;20016;-79
2024/03/06 10:38:34;;;;;;;10.23;5.10;;;8.40;64.90;;;;;;4980405;28;20065;-79
2024/03/06 10:41:24;;;;;;;9.90;4.90;;;8.50;65.00;;;;;;4989975;28;20414;-76
2024/03/06 10:44:15;;;;;;;11.77;5.93;;;8.50;64.90;;;;;;4956044;28;20087;-77
2024/03/06 10:47:05;;;;;;;9.55;5.60;;;8.60;65.00;;;;;;4977925;28;20101;-77
2024/03/06 10:49:50;;;;;;;8.15;5.10;;;8.70;65.10;;;;;;4963167;28;20081;-77
2024/03/06 10:52:38;;;;;;;8.77;5.53;;;8.70;65.00;;;;;;4965750;28;20526;-76
2024/03/06 10:55:23;;;;;;;8.57;5.85;;;8.80;65.60;;;;;;4973003;28;20057;-77
2024/03/06 10:58:08;;;;;;;8.40;5.22;;;8.90;65.10;;;;;;4969210;28;20054;-77
2024/03/06 11:00:55;;;;;;;9.27;5.75;;;8.90;65.00;;;;;;4969472;28;20084;-77
2024/03/06 11:03:40;;;;;;;8.23;5.25;;;9.00;65.10;;;;;;4967709;28;20095;-77
2024/03/06 11:06:26;;;;;;;7.57;5.18;;;9.10;65.20;;;;;;4971001;28;20047;-77
2024/03/06 11:09:14;;;;;;;10.45;5.18;;;9.10;65.10;;;;;;4969213;28;20049;-77
2024/03/06 11:11:59;;;;;;;6.18;5.07;;;9.20;65.20;;;;;;4951359;28;20141;-77
2024/03/06 11:14:44;;;;;;;8.90;5.40;;;9.20;65.10;;;;;;4972864;28;20839;-77
2024/03/06 11:17:28;;;;;;;11.73;5.13;;;9.20;65.00;;;;;;4970921;28;20568;-79
2024/03/06 11:20:19;;;;;;;10.07;5.40;;;9.30;65.10;;;;;;4974491;28;20469;-78
2024/03/06 11:23:11;;;;;;;9.75;5.38;;;9.40;65.80;;;;;;4981815;28;20572;-78
2024/03/06 11:25:59;;;;;;;9.85;6.00;;;9.40;65.20;;;;;;4963373;28;20058;-78
2024/03/06 11:28:50;;;;;;;6.18;4.90;;;9.50;65.30;;;;;;4973765;28;20046;-78
2024/03/06 11:31:35;;;;;;;10.82;5.60;;;9.50;65.10;;;;;;4973652;28;20045;-78
2024/03/06 11:34:22;;;;;;;10.00;5.85;;;9.70;65.40;;;;;;4975883;28;20056;-78
2024/03/06 11:37:09;;;;;;;10.50;5.88;;;9.70;65.30;;;;;;4964322;28;20594;-78
2024/03/06 11:40:02;;;;;;;11.85;5.90;;;9.80;65.30;;;;;;4989385;28;20080;-78
2024/03/06 11:42:49;;;;;;;7.73;5.13;;;9.90;65.40;;;;;;4954136;28;20785;-78
2024/03/06 11:45:44;;;;;;;8.25;4.95;;;9.90;65.20;;;;;;4977822;28;20116;-78
2024/03/06 11:48:28;;;;;;;9.50;4.82;;;10.00;65.20;;;;;;4965576;28;20116;-78
2024/03/06 11:51:13;;;;;;;8.85;4.78;;;10.10;65.30;;;;;;4977853;28;20395;-80
2024/03/06 11:53:57;;;;;;;9.23;5.70;;;10.20;65.30;;;;;;4980347;28;20046;-78
2024/03/06 11:56:50;;;;;;;9.95;4.55;;;10.30;65.20;;;;;;4978296;28;20177;-77
2024/03/06 11:59:38;;;;;;;7.93;4.43;;;10.40;65.20;;;;;;4969787;28;20041;-77
2024/03/06 12:02:22;;;;;;;10.32;5.10;;;10.40;65.10;;;;;;4976480;28;20049;-77
2024/03/06 12:05:10;;;;;;;8.45;4.68;;;10.50;65.10;;;;;;4975091;28;20122;-76
2024/03/06 12:07:54;;;;;;;9.80;5.00;;;10.60;65.10;;;;;;4976250;28;20120;-77
2024/03/06 12:10:39;;;;;;;9.57;4.93;;;10.70;65.30;;;;;;4977988;28;20193;-76
2024/03/06 12:13:24;;;;;;;9.90;4.15;;;10.80;65.20;;;;;;4978306;28;20084;-77
2024/03/06 12:16:09;;;;;;;7.53;4.65;;;10.90;65.20;;;;;;4977010;28;20314;-76
2024/03/06 12:18:59;;;;;;;8.05;4.78;;;11.10;65.40;;;;;;4977196;28;20114;-76
2024/03/06 12:21:49;;;;;;;8.25;4.03;;;11.20;65.30;;;;;;4975578;28;20107;-77
2024/03/06 12:24:34;;;;;;;7.70;4.18;;;11.40;65.40;;;;;;4973415;28;20096;-77
2024/03/06 12:27:22;;;;;;;11.40;4.32;;;11.50;65.20;;;;;;4962856;28;20042;-77
2024/03/06 12:30:12;;;;;;;8.18;3.97;;;11.70;65.40;;;;;;4971833;28;20064;-77
2024/03/06 12:32:59;;;;;;;7.72;4.13;;;11.70;65.10;;;;;;4977840;28;20081;-77
2024/03/06 12:35:43;;;;;;;8.05;3.53;;;11.90;65.30;;;;;;4972019;28;20507;-77
2024/03/06 12:38:29;;;;;;;6.97;3.63;;;11.90;65.10;;;;;;4977855;28;20089;-77
2024/03/06 12:41:14;;;;;;;7.45;3.60;;;12.10;65.30;;;;;;4981420;28;20721;-77
2024/03/06 12:43:58;;;;;;;8.00;3.53;;;12.20;65.80;;;;;;4993123;28;20045;-77
2024/03/06 12:46:44;;;;;;;9.00;4.68;;;12.40;65.30;;;;;;4972712;28;20049;-78
2024/03/06 12:49:28;;;;;;;8.38;4.38;;;12.50;65.20;;;;;;4967345;28;20105;-77
2024/03/06 12:52:13;;;;;;;7.22;4.00;;;12.60;65.10;;;;;;4972274;28;20209;-77
2024/03/06 12:54:58;;;;;;;6.60;3.63;;;12.80;65.80;;;;;;4976285;28;20057;-78
2024/03/06 12:57:43;;;;;;;7.93;3.33;;;12.90;65.20;;;;;;4960116;28;20356;-78
2024/03/06 13:00:28;;;;;;;6.13;3.33;;;13.10;65.30;;;;;;4975561;28;20128;-78
2024/03/06 13:03:12;;;;;;;6.35;3.85;;;13.20;65.20;;;;;;4975155;28;20394;-78
2024/03/06 13:05:57;;;;;;;5.55;3.03;;;13.30;65.10;;;;;;4966445;28;20477;-77
2024/03/06 13:08:41;;;;;;;6.90;3.30;;;13.40;65.00;;;;;;4968722;28;20514;-77
2024/03/06 13:11:26;;;;;;;5.50;3.42;;;13.50;65.00;;;;;;4979216;28;20458;-77
2024/03/06 13:14:11;;;;;;;7.15;3.30;;;13.50;64.80;;;;;;4971425;28;20053;-77
2024/03/06 13:16:56;;;;;;;7.03;3.35;;;13.60;64.80;;;;;;4973772;28;20058;-77
2024/03/06 13:19:40;;;;;;;4.80;2.78;;;13.70;64.90;;;;;;4971791;28;20492;-77
2024/03/06 13:22:24;;;;;;;5.82;2.90;;;13.70;64.70;;;;;;4968861;28;20212;-77
2024/03/06 13:25:10;;;;;;;6.72;3.10;;;13.80;64.80;;;;;;4979423;28;20093;-77
2024/03/06 13:27:54;;;;;;;3.75;2.33;;;13.90;64.90;;;;;;4962997;28;20640;-78
2024/03/06 13:30:39;;;;;;;3.80;2.63;;;13.90;64.60;;;;;;4977378;28;20132;-77
2024/03/06 13:33:26;;;;;;;6.93;2.75;;;14.00;64.60;;;;;;4969821;28;20113;-77
2024/03/06 13:36:10;;;;;;;5.50;2.55;;;14.00;64.30;;;;;;4970556;28;21002;-78
2024/03/06 13:38:55;;;;;;;6.50;2.85;;;14.10;64.30;;;;;;4980906;28;20125;-77
2024/03/06 13:41:40;;;;;;;6.57;2.85;;;14.10;64.20;;;;;;4976549;28;20210;-78
2024/03/06 13:44:25;;;;;;;4.32;2.35;;;14.10;64.00;;;;;;4947653;28;20284;-77
2024/03/06 13:47:18;;;;;;;4.03;2.08;;;14.10;63.90;;;;;;4978415;28;20184;-77
2024/03/06 13:50:02;;;;;;;8.02;2.60;;;14.10;63.80;;;;;;4969981;28;20113;-77
2024/03/06 13:52:50;;;;;;;5.85;1.88;;;14.10;63.80;;;;;;4964351;28;20398;-77
2024/03/06 13:55:35;;;;;;;6.70;1.90;;;14.20;63.90;;;;;;4977084;28;20140;-78
2024/03/06 13:58:20;;;;;;;5.43;2.22;;;14.20;63.80;;;;;;4973010;28;20089;-77
2024/03/06 14:01:05;;;;;;;3.28;1.90;;;14.30;63.70;;;;;;4965928;28;20344;-77
2024/03/06 14:03:50;;;;;;;5.28;2.17;;;14.30;63.60;;;;;;4972989;28;20510;-77
2024/03/06 14:06:35;;;;;;;6.22;2.28;;;14.40;64.10;;;;;;4973998;28;20122;-76
2024/03/06 14:09:19;;;;;;;3.63;1.65;;;14.50;63.50;;;;;;4967241;28;20089;-77
2024/03/06 14:12:04;;;;;;;3.85;1.67;;;14.50;63.20;;;;;;4969915;28;20552;-77
2024/03/06 14:14:50;;;;;;;7.00;1.98;;;14.60;63.30;;;;;;4987352;28;20053;-76
2024/03/06 14:17:34;;;;;;;2.50;1.35;;;14.60;63.10;;;;;;4974583;28;20149;-77
2024/03/06 14:20:19;;;;;;;2.58;1.38;;;14.70;62.90;;;;;;4964920;28;20513;-76
2024/03/06 14:23:03;;;;;;;6.18;2.03;;;14.70;62.60;;;;;;4972208;28;20083;-77
2024/03/06 14:25:47;;;;;;;7.10;2.20;;;14.70;62.50;;;;;;4970693;28;20054;-79